Time;durP1;ratioP1;P1;durP2;ratioP2;P2;SDS_P1;SDS_P2;PMS_P1;PMS_P2;Temp;Humidity;BMP_temperature;BMP_pressure;BME280_temperature;BME280_humidity;BME280_pressure;Samples;Min_cycle;Max_cycle;Signal;HPM_P1;HPM_P2
2023/09/07 05:18:59;;;;;;;;;;;;;;;;;;5002826;28;19957;-51
2023/09/07 05:21:25;;;;;;;;;;;;;;;;;;4991648;28;19914;-47
2023/09/07 05:23:51;;;;;;;;;;;;;;;;;;4991697;28;20273;-47
2023/09/07 05:26:17;;;;;;;;;;;;;;;;;;4991422;28;20458;-47
2023/09/07 05:28:43;;;;;;;;;;;;;;;;;;4991879;28;19910;-50
2023/09/07 05:31:09;;;;;;;;;;;;;;;;;;4991528;28;19921;-51
2023/09/07 05:33:34;;;;;;;;;;;;;;;;;;4991949;28;19964;-47
2023/09/07 05:36:01;;;;;;;;;;;;;;;;;;4973911;28;20364;-45
2023/09/07 05:38:27;;;;;;;;;;;;;;;;;;4991524;28;20384;-45
2023/09/07 05:40:54;;;;;;;;;;;;;;;;;;4991451;28;19910;-45
2023/09/07 05:43:20;;;;;;;;;;;;;;;;;;4989786;28;19928;-46
2023/09/07 05:45:46;;;;;;;;;;;;;;;;;;4989557;28;19917;-47
2023/09/07 05:48:11;;;;;;;;;;;;;;;;;;4991327;28;19914;-46
2023/09/07 05:50:37;;;;;;;;;;;;;;;;;;4990189;28;20525;-46
2023/09/07 05:53:03;;;;;;;;;;;;;;;;;;4989648;28;20040;-45
2023/09/07 05:55:29;;;;;;;;;;;;;;;;;;4989313;28;19917;-46
2023/09/07 05:57:55;;;;;;;;;;;;;;;;;;4988871;28;19945;-47
2023/09/07 06:00:21;;;;;;;;;;;;;;;;;;4989140;28;19920;-46
2023/09/07 06:02:47;;;;;;;;;;;;;;;;;;4983796;28;19919;-47
2023/09/07 06:05:13;;;;;;;;;;;;;;;;;;4988554;28;19914;-46
2023/09/07 06:07:39;;;;;;;;;;;;;;;;;;4972523;28;19957;-48
2023/09/07 06:10:08;;;;;;;;;;;;;;;;;;4984307;28;20411;-47
2023/09/07 06:12:34;;;;;;;;;;;;;;;;;;4988280;28;19917;-47
2023/09/07 06:15:00;;;;;;;;;;;;;;;;;;4988570;28;19922;-45
2023/09/07 06:17:26;;;;;;;;;;;;;;;;;;4989863;28;19972;-48
2023/09/07 06:19:52;;;;;;;;;;;;;;;;;;4990603;28;20439;-46
2023/09/07 06:22:18;;;;;;;;;;;;;;;;;;4975209;28;19914;-45
2023/09/07 06:24:43;;;;;;;;;;;;;;;;;;4993839;28;19925;-50
2023/09/07 06:27:09;;;;;;;;;;;;;;;;;;4990692;28;19988;-49
2023/09/07 06:29:35;;;;;;;;;;;;;;;;;;4988270;28;19917;-49
2023/09/07 06:32:01;;;;;;;;;;;;;;;;;;4993730;28;20273;-48
2023/09/07 06:34:27;;;;;;;;;;;;;;;;;;4994772;28;19917;-47
2023/09/07 06:36:53;;;;;;;;;;;;;;;;;;4993509;28;19969;-48
2023/09/07 06:39:19;;;;;;;;;;;;;;;;;;4991637;28;19922;-48
2023/09/07 06:41:45;;;;;;;;;;;;;;;;;;4992523;28;20304;-47
2023/09/07 06:44:10;;;;;;;;;;;;;;;;;;4994808;28;20369;-49
2023/09/07 06:46:36;;;;;;;;;;;;;;;;;;4993211;28;19914;-48
2023/09/07 06:49:03;;;;;;;;;;;;;;;;;;4994662;28;20211;-47
2023/09/07 06:51:29;;;;;;;;;;;;;;;;;;4994461;28;19945;-48
2023/09/07 06:53:54;;;;;;;;;;;;;;;;;;4994612;28;19910;-51
2023/09/07 06:56:20;;;;;;;;;;;;;;;;;;4993742;28;19910;-51
2023/09/07 06:58:46;;;;;;;;;;;;;;;;;;4994374;28;19909;-49
2023/09/07 07:01:12;;;;;;;;;;;;;;;;;;4993681;28;19918;-47
2023/09/07 07:03:38;;;;;;;;;;;;;;;;;;4994543;28;19912;-50
2023/09/07 07:06:04;;;;;;;;;;;;;;;;;;4993983;28;19910;-50
2023/09/07 07:08:30;;;;;;;;;;;;;;;;;;4991613;28;19918;-50
2023/09/07 07:10:56;;;;;;;;;;;;;;;;;;4994042;28;19914;-48
2023/09/07 07:13:21;;;;;;;;;;;;;;;;;;4993842;28;20416;-46
2023/09/07 07:15:47;;;;;;;;;;;;;;;;;;4993872;28;19985;-50
2023/09/07 07:18:13;;;;;;;;;;;;;;;;;;4988560;28;19921;-46
2023/09/07 07:20:39;;;;;;;;;;;;;;;;;;5008207;28;19917;-47
2023/09/07 07:23:08;;;;;;;;;;;;;;;;;;5009617;28;19987;-47
2023/09/07 07:25:34;;;;;;;;;;;;;;;;;;5007962;28;19914;-48
2023/09/07 07:28:00;;;;;;;;;;;;;;;;;;5011467;28;19916;-48
2023/09/07 07:30:26;;;;;;;;;;;;;;;;;;5011053;28;19940;-49
2023/09/07 07:32:51;;;;;;;;;;;;;;;;;;5011045;28;20351;-46
2023/09/07 07:35:17;;;;;;;;;;;;;;;;;;5011075;28;19952;-47
2023/09/07 07:37:43;;;;;;;;;;;;;;;;;;5002223;28;20377;-47
2023/09/07 07:40:09;;;;;;;;;;;;;;;;;;5006310;28;20338;-49
2023/09/07 07:42:35;;;;;;;;;;;;;;;;;;5011031;28;20013;-49
2023/09/07 07:45:01;;;;;;;;;;;;;;;;;;5011524;28;20368;-48
2023/09/07 07:47:27;;;;;;;;;;;;;;;;;;5011117;28;19913;-48
2023/09/07 07:49:53;;;;;;;;;;;;;;;;;;5011837;28;19909;-49
2023/09/07 07:52:19;;;;;;;;;;;;;;;;;;5011123;28;20369;-49
2023/09/07 07:54:44;;;;;;;;;;;;;;;;;;5011078;28;19920;-47
2023/09/07 07:57:11;;;;;;;;;;;;;;;;;;5010857;28;19909;-49
2023/09/07 07:59:37;;;;;;;;;;;;;;;;;;5011045;28;19909;-47
2023/09/07 08:02:03;;;;;;;;;;;;;;;;;;5010125;28;20387;-48
2023/09/07 08:04:32;;;;;;;;;;;;;;;;;;5008554;28;20378;-47
2023/09/07 08:07:03;;;;;;;;;;;;;;;;;;5009415;28;19914;-46
2023/09/07 08:09:29;;;;;;;;;;;;;;;;;;5010587;28;19915;-49
2023/09/07 08:11:55;;;;;;;;;;;;;;;;;;5010913;28;19914;-46
2023/09/07 08:14:22;;;;;;;;;;;;;;;;;;5011379;28;19910;-46
2023/09/07 08:16:48;;;;;;;;;;;;;;;;;;5009156;28;20351;-47
2023/09/07 08:19:14;;;;;;;;;;;;;;;;;;5009468;28;20009;-49
2023/09/07 08:21:42;;;;;;;;;;;;;;;;;;5011352;28;20309;-47
2023/09/07 08:24:07;;;;;;;;;;;;;;;;;;5011014;28;20307;-48
2023/09/07 08:26:33;;;;;;;;;;;;;;;;;;4994300;28;19919;-47
2023/09/07 08:29:04;;;;;;;;;;;;;;;;;;4991823;28;19945;-47
2023/09/07 08:31:30;;;;;;;;;;;;;;;;;;4991661;28;20001;-48
2023/09/07 08:33:56;;;;;;;;;;;;;;;;;;4992427;28;20004;-48
2023/09/07 08:36:23;;;;;;;;;;;;;;;;;;5011736;28;20327;-47
2023/09/07 08:38:49;;;;;;;;;;;;;;;;;;5011033;28;19917;-49
2023/09/07 08:41:15;;;;;;;;;;;;;;;;;;5009400;28;20814;-49
2023/09/07 08:43:41;;;;;;;;;;;;;;;;;;5009872;28;19909;-48
2023/09/07 08:46:07;;;;;;;;;;;;;;;;;;5008184;28;19918;-50
2023/09/07 08:48:33;;;;;;;;;;;;;;;;;;5009140;28;19920;-47
2023/09/07 08:50:59;;;;;;;;;;;;;;;;;;5010303;28;19914;-49
2023/09/07 08:53:25;;;;;;;;;;;;;;;;;;5010372;28;19916;-51
2023/09/07 08:55:51;;;;;;;;;;;;;;;;;;5009946;28;19964;-51
2023/09/07 08:58:17;;;;;;;;;;;;;;;;;;5010707;28;19973;-51
2023/09/07 09:00:43;;;;;;;;;;;;;;;;;;5009806;28;19953;-51
2023/09/07 09:03:08;;;;;;;;;;;;;;;;;;5003123;28;20386;-48
2023/09/07 09:05:34;;;;;;;;;;;;;;;;;;5000728;28;19975;-50
2023/09/07 09:08:00;;;;;;;;;;;;;;;;;;5010193;28;19916;-47
2023/09/07 09:10:26;;;;;;;;;;;;;;;;;;5011160;28;19920;-46
2023/09/07 09:12:52;;;;;;;;;;;;;;;;;;5009753;28;19979;-50
2023/09/07 09:15:19;;;;;;;;;;;;;;;;;;5009169;28;20356;-48
2023/09/07 09:17:45;;;;;;;;;;;;;;;;;;5010686;28;19910;-45
2023/09/07 09:20:11;;;;;;;;;;;;;;;;;;4994058;28;19984;-47
2023/09/07 09:22:37;;;;;;;;;;;;;;;;;;4989622;28;19913;-46
2023/09/07 09:25:04;;;;;;;;;;;;;;;;;;4991563;28;19957;-47
2023/09/07 09:27:30;;;;;;;;;;;;;;;;;;4989177;28;19925;-46
2023/09/07 09:29:56;;;;;;;;;;;;;;;;;;4989034;28;20303;-47
2023/09/07 09:32:22;;;;;;;;;;;;;;;;;;4989896;28;19941;-46
2023/09/07 09:34:48;;;;;;;;;;;;;;;;;;4989933;28;20000;-49
2023/09/07 09:37:14;;;;;;;;;;;;;;;;;;4988630;28;20276;-47
2023/09/07 09:39:40;;;;;;;;;;;;;;;;;;4990657;28;19912;-47
2023/09/07 09:42:06;;;;;;;;;;;;;;;;;;4966904;28;20320;-45
2023/09/07 09:44:32;;;;;;;;;;;;;;;;;;4986833;28;19922;-46
2023/09/07 09:46:58;;;;;;;;;;;;;;;;;;4974884;28;19990;-47
2023/09/07 09:49:26;;;;;;;;;;;;;;;;;;4979457;28;19910;-46
2023/09/07 09:51:52;;;;;;;;;;;;;;;;;;4970951;28;19918;-46
2023/09/07 09:54:18;;;;;;;;;;;;;;;;;;4971858;28;20305;-45
2023/09/07 09:56:44;;;;;;;;;;;;;;;;;;4970972;28;19921;-46
2023/09/07 09:59:10;;;;;;;;;;;;;;;;;;4978245;28;19916;-46
2023/09/07 10:01:36;;;;;;;;;;;;;;;;;;4990633;28;19913;-56
2023/09/07 10:04:02;;;;;;;;;;;;;;;;;;4976606;28;19914;-47
2023/09/07 10:06:28;;;;;;;;;;;;;;;;;;4975465;28;19918;-49
2023/09/07 10:08:54;;;;;;;;;;;;;;;;;;4979252;28;19917;-45
2023/09/07 10:11:20;;;;;;;;;;;;;;;;;;4989314;28;19918;-47
2023/09/07 10:13:46;;;;;;;;;;;;;;;;;;4989724;28;19964;-47
2023/09/07 10:16:12;;;;;;;;;;;;;;;;;;4989951;28;19973;-47
2023/09/07 10:18:38;;;;;;;;;;;;;;;;;;4988829;28;19914;-46
2023/09/07 10:21:04;;;;;;;;;;;;;;;;;;4989448;28;19968;-48
2023/09/07 10:23:30;;;;;;;;;;;;;;;;;;4987885;28;20400;-49
2023/09/07 10:25:56;;;;;;;;;;;;;;;;;;4986027;28;19914;-46
2023/09/07 10:28:22;;;;;;;;;;;;;;;;;;4988118;28;20323;-46
2023/09/07 10:30:48;;;;;;;;;;;;;;;;;;4988842;28;20018;-47
2023/09/07 10:33:14;;;;;;;;;;;;;;;;;;4985544;28;20052;-50
2023/09/07 10:35:42;;;;;;;;;;;;;;;;;;4987193;28;19914;-49
2023/09/07 10:38:08;;;;;;;;;;;;;;;;;;4989010;28;19921;-47
2023/09/07 10:40:34;;;;;;;;;;;;;;;;;;4989664;28;20304;-47
2023/09/07 10:43:00;;;;;;;;;;;;;;;;;;4983462;28;19924;-48
2023/09/07 10:45:26;;;;;;;;;;;;;;;;;;4971693;28;19920;-47
2023/09/07 10:47:51;;;;;;;;;;;;;;;;;;4982512;28;19925;-47
2023/09/07 10:50:17;;;;;;;;;;;;;;;;;;4984856;28;19969;-49
2023/09/07 10:52:43;;;;;;;;;;;;;;;;;;4987188;28;19972;-46
2023/09/07 10:55:10;;;;;;;;;;;;;;;;;;4989463;28;19921;-47
2023/09/07 10:57:36;;;;;;;;;;;;;;;;;;4988510;28;20008;-46
2023/09/07 11:00:03;;;;;;;;;;;;;;;;;;4989517;28;20048;-46
2023/09/07 11:02:29;;;;;;;;;;;;;;;;;;4988572;28;20516;-47
2023/09/07 11:04:55;;;;;;;;;;;;;;;;;;4981441;28;19914;-47
2023/09/07 11:07:21;;;;;;;;;;;;;;;;;;4990625;28;19941;-48
2023/09/07 11:09:47;;;;;;;;;;;;;;;;;;4992676;28;20360;-50
2023/09/07 11:12:13;;;;;;;;;;;;;;;;;;4993090;28;19952;-48
2023/09/07 11:14:39;;;;;;;;;;;;;;;;;;4991287;28;19914;-47
2023/09/07 11:17:05;;;;;;;;;;;;;;;;;;4993133;28;19917;-50
2023/09/07 11:19:31;;;;;;;;;;;;;;;;;;4997697;28;20288;-50
2023/09/07 11:21:56;;;;;;;;;;;;;;;;;;5006488;28;19914;-50
2023/09/07 11:24:22;;;;;;;;;;;;;;;;;;5004531;28;20279;-49
2023/09/07 11:26:48;;;;;;;;;;;;;;;;;;5012281;28;19918;-49
2023/09/07 11:29:15;;;;;;;;;;;;;;;;;;5012170;28;20257;-51
2023/09/07 11:31:41;;;;;;;;;;;;;;;;;;5010573;28;20351;-52
2023/09/07 11:34:07;;;;;;;;;;;;;;;;;;5010000;28;19968;-48
2023/09/07 11:36:32;;;;;;;;;;;;;;;;;;5010875;28;19997;-51
2023/09/07 11:38:58;;;;;;;;;;;;;;;;;;5004458;28;19914;-50
2023/09/07 11:41:24;;;;;;;;;;;;;;;;;;5002600;28;20277;-51
2023/09/07 11:43:50;;;;;;;;;;;;;;;;;;5008206;28;19969;-51
2023/09/07 11:46:16;;;;;;;;;;;;;;;;;;4999954;28;19914;-48
2023/09/07 11:48:42;;;;;;;;;;;;;;;;;;5011357;28;20000;-48
2023/09/07 11:51:08;;;;;;;;;;;;;;;;;;5011307;28;19917;-49
2023/09/07 11:53:34;;;;;;;;;;;;;;;;;;5010995;28;19956;-50
2023/09/07 11:56:01;;;;;;;;;;;;;;;;;;5010390;28;20376;-51
2023/09/07 11:58:27;;;;;;;;;;;;;;;;;;5009729;28;20036;-49
2023/09/07 12:00:53;;;;;;;;;;;;;;;;;;5009758;28;19992;-51
2023/09/07 12:03:19;;;;;;;;;;;;;;;;;;5009143;28;19917;-47
2023/09/07 12:05:44;;;;;;;;;;;;;;;;;;5010608;28;19910;-47
2023/09/07 12:08:10;;;;;;;;;;;;;;;;;;5010572;28;20409;-46
2023/09/07 12:10:36;;;;;;;;;;;;;;;;;;5007902;28;19917;-50
2023/09/07 12:13:02;;;;;;;;;;;;;;;;;;5010745;28;19913;-49
2023/09/07 12:15:28;;;;;;;;;;;;;;;;;;5010287;28;20308;-49
2023/09/07 12:17:55;;;;;;;;;;;;;;;;;;5009351;28;19945;-49
2023/09/07 12:20:21;;;;;;;;;;;;;;;;;;4993033;28;19918;-49
2023/09/07 12:22:48;;;;;;;;;;;;;;;;;;4991432;28;19916;-50
2023/09/07 12:25:15;;;;;;;;;;;;;;;;;;4990845;28;19917;-50
2023/09/07 12:27:43;;;;;;;;;;;;;;;;;;4990654;28;20424;-51
2023/09/07 12:30:12;;;;;;;;;;;;;;;;;;4990032;28;20319;-48
2023/09/07 12:32:38;;;;;;;;;;;;;;;;;;4990531;28;19917;-48
2023/09/07 12:35:08;;;;;;;;;;;;;;;;;;4990618;28;20299;-48
2023/09/07 12:37:34;;;;;;;;;;;;;;;;;;4990378;28;19918;-49
2023/09/07 12:40:00;;;;;;;;;;;;;;;;;;4990600;28;19910;-51
2023/09/07 12:42:25;;;;;;;;;;;;;;;;;;4990267;28;19910;-50
2023/09/07 12:44:51;;;;;;;;;;;;;;;;;;4990627;28;20279;-48
2023/09/07 12:47:17;;;;;;;;;;;;;;;;;;4990804;28;19918;-48
2023/09/07 12:49:43;;;;;;;;;;;;;;;;;;4989308;28;19914;-47
2023/09/07 12:52:10;;;;;;;;;;;;;;;;;;4988907;28;19914;-49
2023/09/07 12:54:36;;;;;;;;;;;;;;;;;;4988006;28;19914;-48
2023/09/07 12:57:02;;;;;;;;;;;;;;;;;;4971369;28;20416;-51
2023/09/07 12:59:28;;;;;;;;;;;;;;;;;;4989719;28;20384;-48
2023/09/07 13:01:55;;;;;;;;;;;;;;;;;;4989777;28;19910;-51
2023/09/07 13:04:21;;;;;;;;;;;;;;;;;;4990354;28;19909;-48
2023/09/07 13:06:47;;;;;;;;;;;;;;;;;;4970446;28;20348;-48
2023/09/07 13:09:13;;;;;;;;;;;;;;;;;;4989614;28;19924;-50
2023/09/07 13:11:39;;;;;;;;;;;;;;;;;;4984015;28;19960;-48
2023/09/07 13:14:05;;;;;;;;;;;;;;;;;;4982123;28;19936;-48
2023/09/07 13:16:32;;;;;;;;;;;;;;;;;;4985966;28;19914;-51
2023/09/07 13:18:58;;;;;;;;;;;;;;;;;;4977157;28;19917;-48
2023/09/07 13:21:24;;;;;;;;;;;;;;;;;;5007903;28;19956;-47
2023/09/07 13:23:50;;;;;;;;;;;;;;;;;;4990424;28;20339;-49
2023/09/07 13:26:16;;;;;;;;;;;;;;;;;;4989262;28;19910;-48
2023/09/07 13:28:42;;;;;;;;;;;;;;;;;;5006818;28;19914;-47
2023/09/07 13:31:08;;;;;;;;;;;;;;;;;;5006699;28;19920;-49
2023/09/07 13:33:34;;;;;;;;;;;;;;;;;;4996883;28;19968;-49
2023/09/07 13:35:59;;;;;;;;;;;;;;;;;;5003485;28;19913;-50
2023/09/07 13:38:25;;;;;;;;;;;;;;;;;;5004376;28;19964;-48
2023/09/07 13:40:51;;;;;;;;;;;;;;;;;;4996384;28;19917;-48
2023/09/07 13:43:17;;;;;;;;;;;;;;;;;;4975147;28;20377;-48
2023/09/07 13:45:44;;;;;;;;;;;;;;;;;;4986977;28;19914;-48
2023/09/07 13:48:10;;;;;;;;;;;;;;;;;;4969563;28;20296;-48
2023/09/07 13:50:36;;;;;;;;;;;;;;;;;;4985830;28;19924;-50
2023/09/07 13:53:02;;;;;;;;;;;;;;;;;;5007143;28;20153;-50
2023/09/07 13:55:28;;;;;;;;;;;;;;;;;;5006462;28;19910;-48
2023/09/07 13:57:54;;;;;;;;;;;;;;;;;;4983080;28;19918;-51
2023/09/07 14:00:20;;;;;;;;;;;;;;;;;;4987901;28;19910;-47
2023/09/07 14:02:46;;;;;;;;;;;;;;;;;;4969351;28;19910;-48
2023/09/07 14:05:12;;;;;;;;;;;;;;;;;;4969279;28;20470;-50
2023/09/07 14:07:37;;;;;;;;;;;;;;;;;;5001208;28;19945;-50
2023/09/07 14:10:03;;;;;;;;;;;;;;;;;;5006755;28;19910;-48
2023/09/07 14:12:29;;;;;;;;;;;;;;;;;;5005880;28;19920;-49
2023/09/07 14:14:55;;;;;;;;;;;;;;;;;;4989128;28;19910;-47
2023/09/07 14:17:21;;;;;;;;;;;;;;;;;;5003956;28;20395;-48
2023/09/07 14:19:47;;;;;;;;;;;;;;;;;;4988736;28;19957;-49
2023/09/07 14:22:13;;;;;;;;;;;;;;;;;;4975418;28;19918;-47
2023/09/07 14:24:40;;;;;;;;;;;;;;;;;;4985999;28;20807;-48
2023/09/07 14:27:08;;;;;;;;;;;;;;;;;;4983564;28;19977;-50
2023/09/07 14:29:34;;;;;;;;;;;;;;;;;;4972125;28;19914;-48
2023/09/07 14:32:00;;;;;;;;;;;;;;;;;;4985892;28;19941;-49
2023/09/07 14:34:26;;;;;;;;;;;;;;;;;;4990721;28;19926;-50
2023/09/07 14:36:52;;;;;;;;;;;;;;;;;;4985809;28;19917;-48
2023/09/07 14:39:23;;;;;;;;;;;;;;;;;;4984153;28;20369;-47
2023/09/07 14:41:49;;;;;;;;;;;;;;;;;;4989426;28;19914;-48
2023/09/07 14:44:15;;;;;;;;;;;;;;;;;;4984237;28;19914;-48
2023/09/07 14:46:41;;;;;;;;;;;;;;;;;;4987993;28;19914;-48
2023/09/07 14:49:07;;;;;;;;;;;;;;;;;;4974789;28;19910;-48
2023/09/07 14:51:32;;;;;;;;;;;;;;;;;;4990382;28;19972;-51
2023/09/07 14:53:58;;;;;;;;;;;;;;;;;;4996904;28;19921;-49
2023/09/07 14:56:24;;;;;;;;;;;;;;;;;;4987511;28;19956;-49
2023/09/07 14:58:50;;;;;;;;;;;;;;;;;;4973898;28;19940;-48
2023/09/07 15:01:16;;;;;;;;;;;;;;;;;;4989307;28;19937;-50
2023/09/07 15:03:42;;;;;;;;;;;;;;;;;;4995557;28;20055;-52
2023/09/07 15:06:11;;;;;;;;;;;;;;;;;;4976415;28;19980;-50
2023/09/07 15:08:37;;;;;;;;;;;;;;;;;;4989795;28;19944;-50
2023/09/07 15:11:03;;;;;;;;;;;;;;;;;;4983686;28;19918;-49
2023/09/07 15:13:29;;;;;;;;;;;;;;;;;;4980842;28;19911;-48
2023/09/07 15:15:55;;;;;;;;;;;;;;;;;;4985807;28;19921;-47
2023/09/07 15:18:20;;;;;;;;;;;;;;;;;;4988169;28;21017;-47
2023/09/07 15:20:46;;;;;;;;;;;;;;;;;;4999872;28;20016;-49
2023/09/07 15:23:12;;;;;;;;;;;;;;;;;;5010637;28;19932;-51
2023/09/07 15:25:38;;;;;;;;;;;;;;;;;;4992071;28;19917;-49
2023/09/07 15:28:08;;;;;;;;;;;;;;;;;;4989277;28;21010;-48
2023/09/07 15:30:34;;;;;;;;;;;;;;;;;;4989089;28;19914;-49
2023/09/07 15:33:00;;;;;;;;;;;;;;;;;;4988980;28;19921;-50
2023/09/07 15:35:26;;;;;;;;;;;;;;;;;;4989337;28;19975;-50
2023/09/07 15:37:52;;;;;;;;;;;;;;;;;;4991619;28;20352;-47
2023/09/07 15:40:18;;;;;;;;;;;;;;;;;;4996375;28;20000;-48
2023/09/07 15:42:44;;;;;;;;;;;;;;;;;;4973368;28;19953;-49
2023/09/07 15:45:10;;;;;;;;;;;;;;;;;;4970531;28;20289;-49
2023/09/07 15:47:36;;;;;;;;;;;;;;;;;;4987890;28;20004;-47
2023/09/07 15:50:02;;;;;;;;;;;;;;;;;;4969809;28;19921;-48
2023/09/07 15:52:28;;;;;;;;;;;;;;;;;;4986967;28;19922;-50
2023/09/07 15:54:54;;;;;;;;;;;;;;;;;;4987717;28;19913;-48
2023/09/07 15:57:20;;;;;;;;;;;;;;;;;;4985251;28;20308;-49
2023/09/07 15:59:46;;;;;;;;;;;;;;;;;;4986727;28;20294;-47
2023/09/07 16:02:12;;;;;;;;;;;;;;;;;;4990062;28;20378;-49
2023/09/07 16:04:38;;;;;;;;;;;;;;;;;;4987107;28;19920;-51
2023/09/07 16:07:04;;;;;;;;;;;;;;;;;;4988831;28;19914;-49
2023/09/07 16:09:30;;;;;;;;;;;;;;;;;;4985780;28;19954;-47
2023/09/07 16:11:56;;;;;;;;;;;;;;;;;;4977029;28;20400;-51
2023/09/07 16:14:22;;;;;;;;;;;;;;;;;;4982464;28;19917;-48
2023/09/07 16:16:48;;;;;;;;;;;;;;;;;;4984746;28;19918;-48
2023/09/07 16:19:13;;;;;;;;;;;;;;;;;;4994824;28;19917;-48
2023/09/07 16:21:39;;;;;;;;;;;;;;;;;;5007223;28;19914;-51
2023/09/07 16:24:05;;;;;;;;;;;;;;;;;;5000493;28;19960;-49
2023/09/07 16:26:32;;;;;;;;;;;;;;;;;;5007411;28;19910;-50
2023/09/07 16:28:58;;;;;;;;;;;;;;;;;;5007678;28;19914;-50
2023/09/07 16:31:24;;;;;;;;;;;;;;;;;;4990147;28;19913;-51
2023/09/07 16:33:50;;;;;;;;;;;;;;;;;;5008275;28;19924;-50
2023/09/07 16:36:16;;;;;;;;;;;;;;;;;;5008733;28;19984;-50
2023/09/07 16:38:42;;;;;;;;;;;;;;;;;;5003204;28;20320;-50
2023/09/07 16:41:08;;;;;;;;;;;;;;;;;;5008049;28;19957;-48
2023/09/07 16:43:34;;;;;;;;;;;;;;;;;;5002384;28;20380;-48
2023/09/07 16:45:59;;;;;;;;;;;;;;;;;;5007998;28;20331;-48
2023/09/07 16:48:25;;;;;;;;;;;;;;;;;;5009230;28;19924;-48
2023/09/07 16:50:51;;;;;;;;;;;;;;;;;;5007180;28;20376;-49
2023/09/07 16:53:17;;;;;;;;;;;;;;;;;;5003189;28;20023;-49
2023/09/07 16:55:43;;;;;;;;;;;;;;;;;;5006358;28;19909;-50
2023/09/07 16:58:09;;;;;;;;;;;;;;;;;;5004077;28;19919;-51
2023/09/07 17:00:35;;;;;;;;;;;;;;;;;;5007689;28;19941;-49
2023/09/07 17:03:01;;;;;;;;;;;;;;;;;;5007096;28;19920;-48
2023/09/07 17:05:27;;;;;;;;;;;;;;;;;;5007557;28;19967;-48
2023/09/07 17:07:53;;;;;;;;;;;;;;;;;;5008536;28;20269;-51
2023/09/07 17:10:19;;;;;;;;;;;;;;;;;;5007614;28;19917;-48
2023/09/07 17:12:45;;;;;;;;;;;;;;;;;;5007474;28;20392;-48
2023/09/07 17:15:11;;;;;;;;;;;;;;;;;;5006608;28;19968;-52
2023/09/07 17:17:36;;;;;;;;;;;;;;;;;;5005901;28;19918;-48
2023/09/07 17:20:03;;;;;;;;;;;;;;;;;;4991870;28;20436;-49
2023/09/07 17:22:29;;;;;;;;;;;;;;;;;;4979774;28;19933;-48
2023/09/07 17:24:55;;;;;;;;;;;;;;;;;;4987830;28;20254;-48
2023/09/07 17:27:21;;;;;;;;;;;;;;;;;;4972712;28;19914;-51
2023/09/07 17:29:46;;;;;;;;;;;;;;;;;;4987119;28;19949;-48
2023/09/07 17:32:12;;;;;;;;;;;;;;;;;;4987661;28;20012;-51
2023/09/07 17:34:38;;;;;;;;;;;;;;;;;;4986841;28;20319;-49
2023/09/07 17:37:05;;;;;;;;;;;;;;;;;;4987325;28;20374;-47
2023/09/07 17:39:31;;;;;;;;;;;;;;;;;;4986558;28;19948;-49
2023/09/07 17:41:57;;;;;;;;;;;;;;;;;;4988273;28;19914;-50
2023/09/07 17:44:23;;;;;;;;;;;;;;;;;;4988759;28;19910;-51
2023/09/07 17:46:49;;;;;;;;;;;;;;;;;;4984344;28;20355;-51
2023/09/07 17:49:15;;;;;;;;;;;;;;;;;;4980146;28;19946;-49
2023/09/07 17:51:40;;;;;;;;;;;;;;;;;;4966769;28;19922;-52
2023/09/07 17:54:06;;;;;;;;;;;;;;;;;;4979353;28;19914;-47
2023/09/07 17:56:32;;;;;;;;;;;;;;;;;;4988055;28;19914;-48
2023/09/07 17:58:58;;;;;;;;;;;;;;;;;;4970805;28;20412;-50
2023/09/07 18:01:24;;;;;;;;;;;;;;;;;;4987609;28;19968;-49
2023/09/07 18:03:50;;;;;;;;;;;;;;;;;;4970979;28;21807;-47
2023/09/07 18:06:16;;;;;;;;;;;;;;;;;;4986402;28;20257;-47
2023/09/07 18:08:42;;;;;;;;;;;;;;;;;;4986931;28;19949;-47
2023/09/07 18:11:09;;;;;;;;;;;;;;;;;;4967385;28;19945;-47
2023/09/07 18:13:35;;;;;;;;;;;;;;;;;;4970174;28;19910;-49
2023/09/07 18:16:00;;;;;;;;;;;;;;;;;;4986668;28;19921;-46
2023/09/07 18:18:26;;;;;;;;;;;;;;;;;;4993223;28;19913;-47
2023/09/07 18:20:52;;;;;;;;;;;;;;;;;;5010639;28;19925;-50
2023/09/07 18:23:18;;;;;;;;;;;;;;;;;;5006875;28;20357;-48
2023/09/07 18:25:44;;;;;;;;;;;;;;;;;;5008243;28;19921;-48
2023/09/07 18:28:10;;;;;;;;;;;;;;;;;;5005783;28;20432;-47
2023/09/07 18:30:36;;;;;;;;;;;;;;;;;;5002957;28;19955;-50
2023/09/07 18:33:02;;;;;;;;;;;;;;;;;;4986799;28;19971;-46
2023/09/07 18:35:29;;;;;;;;;;;;;;;;;;5008088;28;19957;-47
2023/09/07 18:37:54;;;;;;;;;;;;;;;;;;5009364;28;19959;-47
2023/09/07 18:40:20;;;;;;;;;;;;;;;;;;5004006;28;19917;-46
2023/09/07 18:42:46;;;;;;;;;;;;;;;;;;5006592;28;19961;-47
2023/09/07 18:45:12;;;;;;;;;;;;;;;;;;5003388;28;19917;-48
2023/09/07 18:47:38;;;;;;;;;;;;;;;;;;5002524;28;19913;-48
2023/09/07 18:50:04;;;;;;;;;;;;;;;;;;4996415;28;20351;-50
2023/09/07 18:52:30;;;;;;;;;;;;;;;;;;5009064;28;19971;-51
2023/09/07 18:54:56;;;;;;;;;;;;;;;;;;5010045;28;19913;-48
2023/09/07 18:57:22;;;;;;;;;;;;;;;;;;5008823;28;19971;-50
2023/09/07 18:59:49;;;;;;;;;;;;;;;;;;5008517;28;19917;-50
2023/09/07 19:02:15;;;;;;;;;;;;;;;;;;5005666;28;20299;-47
2023/09/07 19:04:41;;;;;;;;;;;;;;;;;;5008940;28;19914;-48
2023/09/07 19:07:07;;;;;;;;;;;;;;;;;;5008358;28;19997;-50
2023/09/07 19:09:33;;;;;;;;;;;;;;;;;;5006225;28;20336;-48
2023/09/07 19:11:59;;;;;;;;;;;;;;;;;;5006816;28;20347;-51
2023/09/07 19:14:25;;;;;;;;;;;;;;;;;;4991893;28;20055;-49
2023/09/07 19:16:51;;;;;;;;;;;;;;;;;;4990518;28;20374;-48
2023/09/07 19:19:17;;;;;;;;;;;;;;;;;;4999339;28;19922;-51
2023/09/07 19:21:43;;;;;;;;;;;;;;;;;;4987769;28;20395;-47
2023/09/07 19:24:09;;;;;;;;;;;;;;;;;;4985452;28;19961;-47
2023/09/07 19:26:35;;;;;;;;;;;;;;;;;;4986924;28;19909;-48
2023/09/07 19:29:01;;;;;;;;;;;;;;;;;;4988756;28;20262;-49
2023/09/07 19:31:27;;;;;;;;;;;;;;;;;;4987540;28;19914;-50
2023/09/07 19:33:53;;;;;;;;;;;;;;;;;;4986285;28;19984;-48
2023/09/07 19:36:19;;;;;;;;;;;;;;;;;;4988110;28;20389;-49
2023/09/07 19:38:45;;;;;;;;;;;;;;;;;;4989652;28;19913;-47
2023/09/07 19:41:10;;;;;;;;;;;;;;;;;;4987636;28;20000;-48
2023/09/07 19:43:36;;;;;;;;;;;;;;;;;;4985513;28;21484;-50
2023/09/07 19:46:02;;;;;;;;;;;;;;;;;;4985744;28;19914;-47
2023/09/07 19:48:28;;;;;;;;;;;;;;;;;;4988082;28;20416;-48
2023/09/07 19:50:54;;;;;;;;;;;;;;;;;;4988520;28;19964;-52
2023/09/07 19:53:20;;;;;;;;;;;;;;;;;;4970768;28;19947;-49
2023/09/07 19:55:46;;;;;;;;;;;;;;;;;;4988519;28;19960;-50
2023/09/07 19:58:12;;;;;;;;;;;;;;;;;;4968472;28;20024;-49
2023/09/07 20:00:37;;;;;;;;;;;;;;;;;;4988248;28;20396;-49
2023/09/07 20:03:03;;;;;;;;;;;;;;;;;;4986142;28;19917;-48
2023/09/07 20:05:29;;;;;;;;;;;;;;;;;;4988418;28;20415;-46
2023/09/07 20:07:55;;;;;;;;;;;;;;;;;;4987156;28;19972;-48
2023/09/07 20:10:23;;;;;;;;;;;;;;;;;;4986427;28;20407;-47
2023/09/07 20:12:49;;;;;;;;;;;;;;;;;;4987790;28;19916;-49
2023/09/07 20:15:15;;;;;;;;;;;;;;;;;;4970497;28;20368;-48
2023/09/07 20:17:41;;;;;;;;;;;;;;;;;;4969806;28;19917;-47
2023/09/07 20:20:07;;;;;;;;;;;;;;;;;;5003524;28;19924;-47
2023/09/07 20:22:33;;;;;;;;;;;;;;;;;;5005616;28;19913;-49
2023/09/07 20:24:59;;;;;;;;;;;;;;;;;;5008869;28;19909;-47
2023/09/07 20:27:25;;;;;;;;;;;;;;;;;;4989415;28;19936;-46
2023/09/07 20:29:51;;;;;;;;;;;;;;;;;;5008094;28;20433;-51
2023/09/07 20:32:16;;;;;;;;;;;;;;;;;;5007158;28;20364;-47
2023/09/07 20:34:42;;;;;;;;;;;;;;;;;;5005796;28;20012;-52
2023/09/07 20:37:08;;;;;;;;;;;;;;;;;;5006226;28;19917;-49
2023/09/07 20:39:34;;;;;;;;;;;;;;;;;;4985332;28;19967;-49
2023/09/07 20:42:01;;;;;;;;;;;;;;;;;;5007541;28;19914;-47
2023/09/07 20:44:27;;;;;;;;;;;;;;;;;;5007831;28;20388;-48
2023/09/07 20:46:52;;;;;;;;;;;;;;;;;;5006908;28;19921;-49
2023/09/07 20:49:18;;;;;;;;;;;;;;;;;;5006075;28;19913;-48
2023/09/07 20:51:44;;;;;;;;;;;;;;;;;;4987560;28;19921;-48
2023/09/07 20:54:11;;;;;;;;;;;;;;;;;;5007269;28;20299;-48
2023/09/07 20:56:37;;;;;;;;;;;;;;;;;;4988347;28;19918;-48
2023/09/07 20:59:03;;;;;;;;;;;;;;;;;;4990312;28;19916;-47
2023/09/07 21:01:29;;;;;;;;;;;;;;;;;;5005790;28;20415;-47
2023/09/07 21:03:55;;;;;;;;;;;;;;;;;;5008098;28;19909;-47
2023/09/07 21:06:21;;;;;;;;;;;;;;;;;;4987953;28;19914;-47
2023/09/07 21:08:47;;;;;;;;;;;;;;;;;;5005668;28;20012;-46
2023/09/07 21:11:13;;;;;;;;;;;;;;;;;;5005112;28;19917;-47
2023/09/07 21:13:39;;;;;;;;;;;;;;;;;;5006322;28;19914;-49
2023/09/07 21:16:05;;;;;;;;;;;;;;;;;;5006306;28;19913;-50
2023/09/07 21:18:31;;;;;;;;;;;;;;;;;;4988527;28;19913;-49
2023/09/07 21:20:57;;;;;;;;;;;;;;;;;;5004594;28;19921;-51
2023/09/07 21:23:23;;;;;;;;;;;;;;;;;;5005048;28;19917;-50
2023/09/07 21:25:49;;;;;;;;;;;;;;;;;;4988084;28;19945;-51
2023/09/07 21:28:15;;;;;;;;;;;;;;;;;;5005181;28;19991;-50
2023/09/07 21:30:41;;;;;;;;;;;;;;;;;;5005819;28;20373;-49
2023/09/07 21:33:09;;;;;;;;;;;;;;;;;;5004465;28;19909;-49
2023/09/07 21:35:34;;;;;;;;;;;;;;;;;;5005561;28;19913;-48
2023/09/07 21:38:00;;;;;;;;;;;;;;;;;;5006345;28;19909;-49
2023/09/07 21:40:26;;;;;;;;;;;;;;;;;;5007001;28;19917;-52
2023/09/07 21:42:52;;;;;;;;;;;;;;;;;;5006919;28;20001;-49
2023/09/07 21:45:18;;;;;;;;;;;;;;;;;;5006963;28;19910;-49
2023/09/07 21:47:44;;;;;;;;;;;;;;;;;;5005775;28;19910;-51
2023/09/07 21:50:10;;;;;;;;;;;;;;;;;;5005293;28;19964;-48
2023/09/07 21:52:36;;;;;;;;;;;;;;;;;;5006555;28;20335;-49
2023/09/07 21:55:02;;;;;;;;;;;;;;;;;;5007577;28;19967;-48